Time;durP1;ratioP1;P1;durP2;ratioP2;P2;SDS_P1;SDS_P2;PMS_P1;PMS_P2;Temp;Humidity;BMP_temperature;BMP_pressure;BME280_temperature;BME280_humidity;BME280_pressure;Samples;Min_cycle;Max_cycle;Signal;HPM_P1;HPM_P2
2023/06/15 00:01:59;;;;;;;17.07;10.30;;;;;;;13.37;91.91;100260.59;4247256;28;20249;-71
2023/06/15 00:04:26;;;;;;;19.33;10.47;;;;;;;13.44;91.06;100246.16;4268868;28;22246;-71
2023/06/15 00:06:53;;;;;;;18.70;10.43;;;;;;;13.46;90.92;100251.44;4259093;28;20359;-71
2023/06/15 00:09:21;;;;;;;18.17;10.93;;;;;;;13.47;91.08;100231.41;4242044;28;20249;-70
2023/06/15 00:11:47;;;;;;;19.60;10.37;;;;;;;13.51;90.90;100226.47;4263320;28;20230;-71
2023/06/15 00:14:14;;;;;;;19.30;9.50;;;;;;;13.43;90.91;100232.75;4251220;28;20597;-72
2023/06/15 00:16:41;;;;;;;17.13;10.50;;;;;;;13.50;90.95;100231.03;4257204;28;20239;-71
2023/06/15 00:19:08;;;;;;;20.13;10.17;;;;;;;13.52;90.46;100223.56;4245833;28;20232;-72
2023/06/15 00:21:40;;;;;;;16.27;9.30;;;;;;;13.49;90.47;100226.59;4257901;28;23533;-70
2023/06/15 00:24:10;;;;;;;19.53;9.70;;;;;;;13.38;91.30;100221.50;4261206;28;21446;-69
2023/06/15 00:26:37;;;;;;;19.80;10.17;;;;;;;13.40;91.27;100227.66;4251437;28;22641;-72
2023/06/15 00:29:03;;;;;;;17.87;10.00;;;;;;;13.44;90.61;100229.00;4234549;28;21566;-71
2023/06/15 00:31:30;;;;;;;18.73;10.23;;;;;;;13.35;91.26;100230.84;4246279;28;20234;-70
2023/06/15 00:33:57;;;;;;;18.07;11.27;;;;;;;13.32;91.12;100228.47;4250156;28;20418;-70
2023/06/15 00:36:23;;;;;;;19.63;10.63;;;;;;;13.31;91.49;100224.03;4252816;28;22612;-70
2023/06/15 00:38:50;;;;;;;19.70;10.67;;;;;;;13.34;91.15;100234.59;4248732;28;20295;-69
2023/06/15 00:41:17;;;;;;;20.07;9.77;;;;;;;13.40;90.97;100233.94;4243165;28;20300;-71
2023/06/15 00:43:43;;;;;;;18.43;11.47;;;;;;;13.40;90.52;100230.38;4242166;28;20235;-72
2023/06/15 00:46:10;;;;;;;18.63;11.40;;;;;;;13.35;91.14;100219.13;4251486;28;22056;-69
2023/06/15 00:48:37;;;;;;;18.30;10.90;;;;;;;13.30;91.48;100220.50;4263621;28;20234;-73
2023/06/15 00:51:04;;;;;;;19.00;10.67;;;;;;;13.23;91.79;100216.75;4253680;28;20239;-70
2023/06/15 00:53:30;;;;;;;17.93;11.60;;;;;;;13.22;92.05;100222.38;4258606;28;20287;-69
2023/06/15 00:55:57;;;;;;;19.27;10.63;;;;;;;13.21;91.88;100224.22;4247874;28;20306;-70
2023/06/15 00:58:24;;;;;;;17.33;11.07;;;;;;;13.19;92.13;100217.25;4229618;28;21161;-70
2023/06/15 01:00:53;;;;;;;15.17;10.20;;;;;;;13.28;91.99;100211.66;4256037;28;20311;-72
2023/06/15 01:03:20;;;;;;;17.07;10.60;;;;;;;13.27;91.84;100223.53;4246701;28;20230;-69
2023/06/15 01:05:49;;;;;;;16.77;9.87;;;;;;;13.31;91.73;100219.47;4251985;28;20226;-69
2023/06/15 01:08:16;;;;;;;14.80;9.77;;;;;;;13.36;91.40;100231.69;4249877;28;20385;-70
2023/06/15 01:10:43;;;;;;;19.50;10.50;;;;;;;13.35;91.51;100221.84;4263434;28;20317;-70
2023/06/15 01:13:12;;;;;;;20.53;10.23;;;;;;;13.32;91.66;100229.34;4248809;28;21721;-70
2023/06/15 01:15:41;;;;;;;19.20;10.63;;;;;;;13.37;91.57;100231.50;4240469;28;21105;-71
2023/06/15 01:18:08;;;;;;;20.57;10.87;;;;;;;13.32;91.63;100225.75;4262008;28;20229;-71
2023/06/15 01:20:41;;;;;;;20.23;10.53;;;;;;;13.35;91.99;100235.44;4243310;28;22183;-69
2023/06/15 01:23:21;;;;;;;16.10;10.20;;;;;;;13.36;91.54;100231.69;4253225;28;20407;-72
2023/06/15 01:26:05;;;;;;;19.37;11.40;;;;;;;13.37;91.27;100241.56;4248028;28;20232;-73
2023/06/15 01:28:40;;;;;;;17.40;10.30;;;;;;;13.35;91.21;100230.00;4256411;28;23045;-71
2023/06/15 01:31:09;;;;;;;17.97;11.13;;;;;;;13.38;91.53;100240.53;4261149;28;21177;-74
2023/06/15 01:33:48;;;;;;;19.30;11.10;;;;;;;13.38;91.85;100244.13;4247857;28;20297;-71
2023/06/15 01:36:16;;;;;;;20.90;11.20;;;;;;;13.41;91.65;100238.34;4250072;28;20226;-72
2023/06/15 01:38:52;;;;;;;16.10;10.57;;;;;;;13.44;91.51;100237.16;4247886;28;20238;-71
2023/06/15 01:41:20;;;;;;;18.33;10.93;;;;;;;13.46;91.43;100225.09;4237372;28;20233;-71
2023/06/15 01:43:47;;;;;;;16.20;10.30;;;;;;;13.49;91.08;100232.03;4245437;28;20230;-73
2023/06/15 01:46:15;;;;;;;16.77;10.60;;;;;;;13.43;91.39;100230.03;4258879;28;20226;-72
2023/06/15 01:48:41;;;;;;;17.57;10.87;;;;;;;13.46;91.66;100225.09;4248604;28;21186;-72
2023/06/15 01:51:08;;;;;;;17.53;11.27;;;;;;;13.52;91.39;100223.56;4245248;28;23644;-70
2023/06/15 01:53:36;;;;;;;21.00;12.13;;;;;;;13.54;91.69;100223.38;4249060;28;20601;-71
2023/06/15 01:56:02;;;;;;;15.90;11.40;;;;;;;13.45;92.40;100225.28;4256548;28;23325;-72
2023/06/15 01:58:29;;;;;;;18.23;11.57;;;;;;;13.36;93.31;100220.81;4242952;28;20703;-71
2023/06/15 02:00:55;;;;;;;19.70;12.30;;;;;;;13.34;93.50;100220.13;4253961;28;20231;-69
2023/06/15 02:03:22;;;;;;;23.77;11.40;;;;;;;13.31;93.50;100210.44;4233752;28;20520;-70
2023/06/15 02:05:49;;;;;;;21.40;11.47;;;;;;;13.32;93.72;100209.44;4255143;28;20349;-70
2023/06/15 02:08:15;;;;;;;18.57;11.73;;;;;;;13.27;94.51;100209.13;4253384;28;20243;-71
2023/06/15 02:10:42;;;;;;;17.80;11.80;;;;;;;13.21;94.54;100210.63;4260856;28;23047;-72
2023/06/15 02:13:11;;;;;;;17.03;11.67;;;;;;;13.20;95.08;100210.81;4259596;28;20405;-71
2023/06/15 02:15:38;;;;;;;20.50;12.27;;;;;;;13.15;95.54;100209.44;4255341;28;20296;-70
2023/06/15 02:18:15;;;;;;;20.07;12.37;;;;;;;13.20;95.39;100218.97;4241063;28;20226;-71
2023/06/15 02:20:42;;;;;;;26.30;13.43;;;;;;;13.17;96.04;100222.88;4250156;28;20241;-70
2023/06/15 02:23:10;;;;;;;26.53;14.43;;;;;;;13.13;96.49;100222.38;4248889;28;23462;-71
2023/06/15 02:25:37;;;;;;;27.67;15.30;;;;;;;13.08;97.20;100224.72;4238476;28;25361;-72
2023/06/15 02:28:04;;;;;;;28.57;15.10;;;;;;;13.08;96.76;100232.03;4247180;28;20243;-71
2023/06/15 02:30:31;;;;;;;22.53;14.50;;;;;;;13.02;97.44;100230.00;4257126;28;20605;-71
2023/06/15 02:33:00;;;;;;;29.33;15.70;;;;;;;12.99;98.08;100232.03;4258879;28;20291;-71
2023/06/15 02:35:27;;;;;;;28.10;16.53;;;;;;;12.95;98.03;100233.38;4251734;28;20244;-69
2023/06/15 02:37:54;;;;;;;26.20;16.03;;;;;;;12.98;98.34;100232.22;4254705;28;20239;-69
2023/06/15 02:40:20;;;;;;;22.30;14.77;;;;;;;13.05;98.07;100230.50;4256962;28;20234;-70
2023/06/15 02:42:47;;;;;;;24.83;15.43;;;;;;;13.09;98.00;100225.59;4261202;28;20481;-69
2023/06/15 02:45:14;;;;;;;23.67;15.00;;;;;;;13.10;98.31;100225.41;4243910;28;20250;-71
2023/06/15 02:47:42;;;;;;;22.83;14.33;;;;;;;13.16;98.22;100222.00;4255420;28;20315;-71
2023/06/15 02:50:09;;;;;;;29.00;16.17;;;;;;;13.15;98.13;100225.75;4240759;28;20644;-72
2023/06/15 02:52:36;;;;;;;25.67;15.77;;;;;;;13.18;98.09;100231.88;4246389;28;20324;-70
2023/06/15 02:55:04;;;;;;;31.07;16.60;;;;;;;13.08;97.75;100229.31;4247180;28;20230;-70
2023/06/15 02:57:30;;;;;;;26.70;15.93;;;;;;;12.97;98.03;100225.91;4247173;28;20230;-69
2023/06/15 02:59:58;;;;;;;28.37;15.17;;;;;;;13.05;98.07;100232.38;4253403;28;20476;-70
2023/06/15 03:02:25;;;;;;;28.97;15.97;;;;;;;13.06;97.96;100229.50;4246593;28;20386;-70
2023/06/15 03:04:53;;;;;;;27.33;15.43;;;;;;;13.09;98.24;100237.31;4252618;28;20234;-71
2023/06/15 03:07:22;;;;;;;25.17;14.27;;;;;;;13.11;98.37;100228.97;4254657;28;20274;-70
2023/06/15 03:09:50;;;;;;;26.80;16.10;;;;;;;13.12;98.33;100236.09;4250289;28;20324;-70
2023/06/15 03:12:17;;;;;;;27.37;15.70;;;;;;;13.17;98.30;100236.47;4256000;28;21788;-71
2023/06/15 03:14:44;;;;;;;28.87;16.57;;;;;;;13.12;98.11;100230.66;4251288;28;20242;-70
2023/06/15 03:17:12;;;;;;;25.50;17.23;;;;;;;13.09;98.41;100240.03;4253248;28;20292;-71
2023/06/15 03:19:40;;;;;;;30.20;17.13;;;;;;;13.07;98.51;100236.59;4250846;28;21764;-70
2023/06/15 03:22:09;;;;;;;23.03;14.83;;;;;;;13.09;98.22;100231.03;4252294;28;21157;-69
2023/06/15 03:24:36;;;;;;;24.93;15.37;;;;;;;13.14;98.30;100228.63;4250743;28;22477;-71
2023/06/15 03:27:06;;;;;;;27.80;16.83;;;;;;;13.08;98.52;100216.56;4251999;28;25433;-71
2023/06/15 03:29:36;;;;;;;27.60;16.30;;;;;;;13.13;98.54;100216.06;4239951;28;21143;-72
2023/06/15 03:32:07;;;;;;;30.00;15.87;;;;;;;13.12;98.41;100225.22;4250129;28;21131;-70
2023/06/15 03:34:35;;;;;;;27.30;16.17;;;;;;;13.12;98.21;100219.81;4249863;28;21787;-70
2023/06/15 03:37:02;;;;;;;21.60;14.17;;;;;;;13.19;98.64;100218.09;4245462;28;20360;-71
2023/06/15 03:39:29;;;;;;;31.40;17.37;;;;;;;13.24;98.66;100218.47;4257489;28;20240;-70
2023/06/15 03:41:55;;;;;;;25.77;16.73;;;;;;;13.24;98.55;100223.91;4261890;28;21734;-71
2023/06/15 03:44:22;;;;;;;28.87;18.07;;;;;;;13.13;98.35;100211.50;4261282;28;20246;-73
2023/06/15 03:46:49;;;;;;;27.57;17.27;;;;;;;13.28;98.52;100216.25;4274370;28;20238;-70
2023/06/15 03:49:15;;;;;;;28.07;16.67;;;;;;;13.35;98.43;100211.81;4257004;28;21247;-69
2023/06/15 03:51:42;;;;;;;30.90;17.50;;;;;;;13.50;98.55;100220.16;4253522;28;21623;-71
2023/06/15 03:54:09;;;;;;;31.70;16.90;;;;;;;13.63;98.45;100220.47;4249658;28;20311;-71
2023/06/15 03:56:36;;;;;;;29.10;18.17;;;;;;;13.66;98.26;100223.88;4249624;28;20231;-71
2023/06/15 03:59:02;;;;;;;26.37;16.40;;;;;;;13.71;98.09;100216.06;4237779;28;20242;-70
2023/06/15 04:01:29;;;;;;;24.07;16.27;;;;;;;13.82;97.93;100220.28;4239355;28;21118;-69
2023/06/15 04:03:55;;;;;;;27.47;16.80;;;;;;;13.86;97.12;100219.72;4248773;28;20234;-70
2023/06/15 04:06:23;;;;;;;26.73;17.67;;;;;;;13.83;96.75;100216.50;4244338;28;20514;-70
2023/06/15 04:08:50;;;;;;;23.87;15.63;;;;;;;13.79;96.50;100202.41;4245202;28;20503;-70
2023/06/15 04:11:20;;;;;;;22.40;14.03;;;;;;;13.97;96.79;100212.22;4265088;28;21325;-70
2023/06/15 04:13:47;;;;;;;22.33;14.23;;;;;;;14.01;96.14;100214.44;4251375;28;20230;-71
2023/06/15 04:16:13;;;;;;;28.37;16.10;;;;;;;13.82;96.23;100218.41;4251593;28;21722;-70
2023/06/15 04:18:40;;;;;;;22.60;15.13;;;;;;;13.81;96.58;100224.84;4252213;28;20238;-71
2023/06/15 04:21:07;;;;;;;21.23;14.57;;;;;;;13.89;96.59;100208.50;4254032;28;20239;-70
2023/06/15 04:23:34;;;;;;;21.20;13.77;;;;;;;14.14;96.68;100210.28;4266932;28;21833;-70
2023/06/15 04:26:03;;;;;;;20.03;13.73;;;;;;;14.30;96.11;100206.66;4250437;28;20247;-71
2023/06/15 04:28:30;;;;;;;24.30;15.47;;;;;;;14.13;93.40;100205.88;4242502;28;22305;-70
2023/06/15 04:31:08;;;;;;;22.20;14.30;;;;;;;14.09;94.80;100216.25;4252677;28;20238;-72
2023/06/15 04:33:36;;;;;;;21.50;12.93;;;;;;;14.23;94.98;100218.28;4270422;28;20249;-69
2023/06/15 04:36:03;;;;;;;20.63;12.83;;;;;;;14.31;94.97;100221.97;4253329;28;21372;-71
2023/06/15 04:38:30;;;;;;;21.77;15.13;;;;;;;14.15;93.88;100225.59;4255926;28;20332;-69
2023/06/15 04:40:57;;;;;;;22.40;13.90;;;;;;;14.09;94.59;100225.28;4248413;28;21673;-69
2023/06/15 04:43:27;;;;;;;22.33;13.07;;;;;;;14.11;94.37;100219.66;4256229;28;20241;-66
2023/06/15 04:45:53;;;;;;;22.30;13.33;;;;;;;14.07;93.74;100226.50;4248002;28;20304;-67
2023/06/15 04:48:20;;;;;;;22.57;12.90;;;;;;;14.18;94.14;100215.22;4255745;28;26093;-68
2023/06/15 04:50:48;;;;;;;18.57;12.67;;;;;;;14.27;93.89;100216.03;4247444;28;21635;-66
2023/06/15 04:53:17;;;;;;;19.83;12.60;;;;;;;14.32;93.63;100221.78;4257103;28;20231;-72
2023/06/15 04:55:44;;;;;;;22.13;12.53;;;;;;;14.31;93.56;100214.66;4245005;28;21564;-71
2023/06/15 04:58:12;;;;;;;20.43;12.20;;;;;;;14.45;93.31;100229.41;4253229;28;24965;-67
2023/06/15 05:00:39;;;;;;;19.13;12.17;;;;;;;14.41;93.00;100230.75;4251714;28;20239;-65
2023/06/15 05:03:06;;;;;;;16.67;12.33;;;;;;;14.45;93.51;100223.09;4253612;28;21046;-65
2023/06/15 05:05:32;;;;;;;21.93;13.33;;;;;;;14.46;92.44;100222.94;4253814;28;20239;-69
2023/06/15 05:07:59;;;;;;;23.53;13.83;;;;;;;14.27;93.03;100230.50;4272107;28;20778;-66
2023/06/15 05:10:26;;;;;;;20.80;11.80;;;;;;;14.38;92.91;100225.69;4248192;28;20236;-66
2023/06/15 05:13:10;;;;;;;22.47;13.43;;;;;;;14.22;92.60;100219.28;4255757;28;20513;-74
2023/06/15 05:15:37;;;;;;;17.97;12.57;;;;;;;14.23;93.48;100222.84;4253421;28;20688;-69
2023/06/15 05:18:04;;;;;;;17.30;11.93;;;;;;;14.36;93.16;100216.84;4245961;28;21010;-69
2023/06/15 05:20:30;;;;;;;16.47;11.97;;;;;;;14.60;93.12;100224.03;4245690;28;20465;-70
2023/06/15 05:22:57;;;;;;;22.80;13.33;;;;;;;14.52;92.46;100224.94;4254232;28;20544;-71
2023/06/15 05:25:23;;;;;;;22.07;13.00;;;;;;;14.69;92.24;100231.16;4249103;28;20697;-72
2023/06/15 05:27:50;;;;;;;21.60;13.00;;;;;;;14.92;90.52;100238.50;4235775;28;23577;-66
2023/06/15 05:30:17;;;;;;;20.30;13.40;;;;;;;14.57;91.49;100243.47;4252639;28;20244;-68
2023/06/15 05:32:44;;;;;;;18.73;13.97;;;;;;;14.27;91.62;100241.38;4252476;28;20226;-68
2023/06/15 05:35:11;;;;;;;22.40;14.17;;;;;;;14.20;92.46;100247.72;4249504;28;20234;-67
2023/06/15 05:37:37;;;;;;;22.40;14.47;;;;;;;14.23;92.66;100245.50;4248868;28;22176;-69
2023/06/15 05:40:05;;;;;;;19.00;13.57;;;;;;;14.52;91.53;100252.16;4245889;28;20241;-68
2023/06/15 05:42:31;;;;;;;21.23;15.60;;;;;;;14.42;92.36;100251.53;4238491;28;21327;-68
2023/06/15 05:44:58;;;;;;;24.07;15.80;;;;;;;14.39;92.85;100255.47;4247883;28;20296;-68
2023/06/15 05:47:25;;;;;;;22.43;14.87;;;;;;;14.61;91.79;100257.56;4251436;28;20288;-69
2023/06/15 05:49:51;;;;;;;27.10;17.07;;;;;;;14.64;92.66;100240.84;4256075;28;20233;-74
2023/06/15 05:52:19;;;;;;;32.17;19.73;;;;;;;15.23;91.29;100256.69;4251846;28;20265;-69
2023/06/15 05:54:46;;;;;;;34.37;19.50;;;;;;;15.71;87.98;100248.25;4267712;28;20231;-68
2023/06/15 05:57:13;;;;;;;28.83;18.60;;;;;;;16.28;86.84;100246.78;4245556;28;20412;-68
2023/06/15 05:59:39;;;;;;;35.63;18.90;;;;;;;16.89;82.19;100251.09;4253657;28;20315;-68
2023/06/15 06:02:07;;;;;;;24.90;15.33;;;;;;;17.43;80.75;100251.66;4251017;28;21038;-66
2023/06/15 06:04:34;;;;;;;28.00;15.10;;;;;;;17.18;79.69;100249.31;4247455;28;20235;-68
2023/06/15 06:07:07;;;;;;;22.70;14.17;;;;;;;17.14;78.06;100242.56;4239269;28;20308;-65
2023/06/15 06:09:34;;;;;;;20.70;14.13;;;;;;;16.59;80.27;100247.59;4243054;28;20302;-71
2023/06/15 06:12:01;;;;;;;20.90;12.93;;;;;;;17.10;79.07;100249.44;4267460;28;21103;-73
2023/06/15 06:14:28;;;;;;;18.67;10.47;;;;;;;17.99;75.62;100242.63;4247952;28;21213;-69
2023/06/15 06:16:55;;;;;;;16.67;9.87;;;;;;;19.05;68.04;100246.03;4239623;28;20284;-71
2023/06/15 06:19:23;;;;;;;15.43;9.57;;;;;;;18.62;67.98;100249.03;4239969;28;22943;-68
2023/06/15 06:21:49;;;;;;;15.70;10.03;;;;;;;18.92;68.36;100255.06;4241803;28;20312;-70
2023/06/15 06:24:16;;;;;;;16.63;8.53;;;;;;;19.24;65.59;100251.75;4237735;28;20362;-71
2023/06/15 06:26:48;;;;;;;16.90;9.43;;;;;;;19.41;66.96;100254.94;4247700;28;25153;-71
2023/06/15 06:29:15;;;;;;;18.37;10.13;;;;;;;20.32;63.79;100258.84;4249314;28;21798;-72
2023/06/15 06:31:42;;;;;;;18.40;10.33;;;;;;;20.71;62.11;100257.00;4238225;28;20238;-73
2023/06/15 06:34:10;;;;;;;15.97;9.53;;;;;;;20.68;62.20;100257.47;4238755;28;20598;-72
2023/06/15 06:36:37;;;;;;;16.83;9.73;;;;;;;19.58;65.87;100263.59;4255391;28;20300;-73
2023/06/15 06:39:04;;;;;;;14.70;9.07;;;;;;;20.87;61.88;100260.34;4246069;28;20237;-72
2023/06/15 06:41:31;;;;;;;18.17;9.67;;;;;;;20.23;63.79;100263.75;4252555;28;20984;-72
2023/06/15 06:43:58;;;;;;;16.83;8.17;;;;;;;21.16;59.50;100264.41;4249500;28;20629;-72
2023/06/15 06:46:24;;;;;;;11.17;7.40;;;;;;;22.32;56.92;100261.28;4258124;28;25569;-72
2023/06/15 06:48:51;;;;;;;12.97;7.43;;;;;;;22.06;56.58;100264.31;4253498;28;25713;-71
2023/06/15 06:51:18;;;;;;;26.87;8.03;;;;;;;22.93;53.48;100261.41;4251145;28;20234;-71
2023/06/15 06:53:44;;;;;;;14.87;7.30;;;;;;;21.01;58.28;100261.97;4260094;28;21675;-70
2023/06/15 06:56:11;;;;;;;12.10;7.50;;;;;;;21.17;57.46;100257.00;4248759;28;20383;-69
2023/06/15 06:58:38;;;;;;;10.50;6.43;;;;;;;21.00;58.50;100259.44;4248978;28;20877;-70
2023/06/15 07:01:05;;;;;;;10.70;7.50;;;;;;;21.23;57.10;100255.28;4257766;28;21677;-72
2023/06/15 07:03:32;;;;;;;13.40;7.67;;;;;;;20.34;59.63;100258.66;4242705;28;20615;-68
2023/06/15 07:05:59;;;;;;;12.20;7.87;;;;;;;19.67;63.32;100259.59;4251635;28;20230;-72
2023/06/15 07:08:26;;;;;;;11.70;7.00;;;;;;;20.41;61.79;100249.31;4257880;28;20460;-69
2023/06/15 07:10:53;;;;;;;10.73;6.77;;;;;;;20.61;60.18;100253.91;4259617;28;20264;-69
2023/06/15 07:13:19;;;;;;;11.97;7.33;;;;;;;20.26;61.81;100262.47;4250656;28;20234;-74
2023/06/15 07:15:46;;;;;;;14.43;7.60;;;;;;;20.47;60.59;100264.09;4247166;28;20544;-67
2023/06/15 07:18:14;;;;;;;15.77;7.63;;;;;;;20.01;61.29;100262.31;4251837;28;24825;-72
2023/06/15 07:20:41;;;;;;;12.87;7.10;;;;;;;19.72;61.64;100259.78;4261572;28;20639;-69
2023/06/15 07:23:08;;;;;;;15.03;8.00;;;;;;;19.19;64.44;100257.88;4244666;28;20252;-68
2023/06/15 07:25:34;;;;;;;14.97;6.90;;;;;;;19.43;63.99;100258.31;4253155;28;20234;-70
2023/06/15 07:28:01;;;;;;;11.60;6.67;;;;;;;19.28;63.62;100255.75;4253963;28;20226;-68
2023/06/15 07:30:29;;;;;;;12.83;6.53;;;;;;;19.33;62.72;100258.75;4269825;28;20351;-67
2023/06/15 07:32:56;;;;;;;14.27;6.67;;;;;;;19.65;62.71;100264.44;4251476;28;21740;-69
2023/06/15 07:35:23;;;;;;;14.33;6.60;;;;;;;20.82;59.37;100254.66;4257023;28;20569;-70
2023/06/15 07:37:49;;;;;;;11.37;5.97;;;;;;;21.44;56.77;100251.31;4256293;28;20245;-70
2023/06/15 07:40:16;;;;;;;11.67;5.87;;;;;;;22.44;54.58;100252.25;4249759;28;21789;-69
2023/06/15 07:42:44;;;;;;;6.37;4.70;;;;;;;22.09;52.01;100256.44;4256100;28;20245;-70
2023/06/15 07:45:11;;;;;;;11.33;5.37;;;;;;;21.48;54.81;100258.03;4253511;28;21152;-69
2023/06/15 07:47:37;;;;;;;7.53;4.80;;;;;;;22.57;52.09;100254.03;4247489;28;20503;-71
2023/06/15 07:50:04;;;;;;;9.97;5.27;;;;;;;21.56;56.21;100256.94;4253775;28;20673;-71
2023/06/15 07:52:31;;;;;;;7.57;4.67;;;;;;;22.63;51.42;100253.09;4245972;28;20242;-70
2023/06/15 07:54:58;;;;;;;9.57;4.80;;;;;;;22.36;51.59;100253.41;4251493;28;20238;-72
2023/06/15 07:57:26;;;;;;;9.70;5.10;;;;;;;22.05;52.12;100268.19;4252048;28;20233;-70
2023/06/15 07:59:52;;;;;;;8.57;4.70;;;;;;;23.00;50.92;100258.53;4251428;28;20893;-68
2023/06/15 08:02:19;;;;;;;10.03;4.60;;;;;;;23.74;47.63;100252.75;4254503;28;21109;-69
2023/06/15 08:04:45;;;;;;;7.50;4.80;;;;;;;23.78;47.62;100260.53;4257542;28;20230;-72
2023/06/15 08:07:12;;;;;;;8.23;5.03;;;;;;;23.62;47.85;100256.56;4251921;28;20639;-71
2023/06/15 08:09:39;;;;;;;9.97;5.07;;;;;;;23.82;47.17;100253.47;4257269;28;22244;-70
2023/06/15 08:12:06;;;;;;;6.40;4.77;;;;;;;23.28;48.06;100248.81;4247809;28;22201;-70
2023/06/15 08:14:35;;;;;;;10.77;5.10;;;;;;;22.38;50.42;100265.06;4243041;28;20419;-69
2023/06/15 08:17:02;;;;;;;10.10;5.37;;;;;;;21.21;53.80;100245.31;4263218;28;21444;-72
2023/06/15 08:19:29;;;;;;;14.73;5.43;;;;;;;22.51;51.37;100241.16;4254914;28;20392;-69
2023/06/15 08:21:56;;;;;;;8.77;5.30;;;;;;;22.46;51.55;100250.13;4255934;28;20630;-72
2023/06/15 08:24:22;;;;;;;8.77;5.67;;;;;;;21.78;52.61;100243.63;4239388;28;20238;-69
2023/06/15 08:26:52;;;;;;;6.13;4.70;;;;;;;21.78;53.76;100238.97;4271132;28;20455;-70
2023/06/15 08:29:18;;;;;;;9.47;4.87;;;;;;;22.24;52.12;100245.06;4249001;28;22297;-70
2023/06/15 08:31:50;;;;;;;11.83;4.47;;;;;;;22.53;51.93;100239.03;4284143;28;20257;-69
2023/06/15 08:34:18;;;;;;;8.83;4.60;;;;;;;21.83;53.19;100241.88;4243198;28;26109;-71
2023/06/15 08:36:46;;;;;;;9.43;4.40;;;;;;;21.97;52.41;100242.59;4245975;28;20444;-71
2023/06/15 08:39:13;;;;;;;7.37;4.73;;;;;;;21.90;53.55;100252.84;4256334;28;20567;-69
2023/06/15 08:41:39;;;;;;;7.70;4.80;;;;;;;21.79;53.20;100246.13;4236197;28;20288;-71
2023/06/15 08:44:06;;;;;;;8.37;4.40;;;;;;;22.73;51.62;100247.88;4262697;28;20621;-69
2023/06/15 08:46:33;;;;;;;7.47;4.77;;;;;;;22.15;51.97;100240.91;4264290;28;20607;-70
2023/06/15 08:49:02;;;;;;;7.30;4.73;;;;;;;22.27;51.44;100243.75;4260578;28;20592;-69
2023/06/15 08:51:29;;;;;;;8.30;5.20;;;;;;;21.39;53.06;100235.47;4258519;28;20225;-69
2023/06/15 08:53:56;;;;;;;6.97;4.67;;;;;;;20.23;57.20;100236.25;4263752;28;20232;-69
2023/06/15 08:56:23;;;;;;;9.87;5.33;;;;;;;20.67;56.59;100232.91;4271868;28;20303;-71
2023/06/15 08:58:49;;;;;;;8.13;4.73;;;;;;;20.81;55.73;100228.22;4265510;28;23678;-70
2023/06/15 09:01:24;;;;;;;8.23;5.50;;;;;;;20.82;56.97;100227.16;4260580;28;21201;-68
2023/06/15 09:03:54;;;;;;;10.20;5.20;;;;;;;20.87;55.18;100233.69;4259376;28;20417;-71
2023/06/15 09:06:22;;;;;;;7.83;4.63;;;;;;;21.20;54.37;100229.03;4261399;28;20238;-69
2023/06/15 09:08:51;;;;;;;7.73;4.63;;;;;;;21.60;52.61;100234.22;4246100;28;20392;-70
2023/06/15 09:11:18;;;;;;;6.40;4.17;;;;;;;21.73;52.65;100226.94;4238407;28;20236;-71
2023/06/15 09:13:45;;;;;;;7.50;4.93;;;;;;;21.32;52.59;100227.25;4254841;28;20690;-69
2023/06/15 09:16:11;;;;;;;12.20;4.90;;;;;;;20.73;54.73;100230.16;4256831;28;20253;-70
2023/06/15 09:18:43;;;;;;;8.93;5.17;;;;;;;20.57;56.79;100230.63;4253172;28;21993;-69
2023/06/15 09:21:16;;;;;;;10.03;5.20;;;;;;;21.11;56.20;100230.38;4266938;28;25787;-68
2023/06/15 09:23:44;;;;;;;8.20;5.83;;;;;;;21.16;53.95;100228.63;4257415;28;20236;-67
2023/06/15 09:26:25;;;;;;;9.83;5.73;;;;;;;20.69;55.21;100228.03;4243760;28;20655;-69
2023/06/15 09:28:56;;;;;;;9.43;5.53;;;;;;;21.46;53.40;100229.88;4254251;28;20894;-67
2023/06/15 09:31:30;;;;;;;7.50;4.67;;;;;;;21.92;51.85;100227.81;4251063;28;20284;-69
2023/06/15 09:34:06;;;;;;;7.93;5.30;;;;;;;21.46;53.50;100221.63;4249743;28;25767;-70
2023/06/15 09:36:48;;;;;;;9.20;6.40;;;;;;;21.13;52.81;100226.31;4261304;28;20611;-68
2023/06/15 09:39:22;;;;;;;10.07;5.33;;;;;;;21.32;53.92;100226.41;4246121;28;21018;-66
2023/06/15 09:41:58;;;;;;;7.53;4.77;;;;;;;21.32;52.90;100220.91;4255127;28;23021;-69
2023/06/15 09:44:26;;;;;;;9.00;4.77;;;;;;;22.40;51.22;100223.47;4256881;28;20339;-67
2023/06/15 09:46:57;;;;;;;9.30;4.90;;;;;;;21.47;52.55;100220.56;4254200;28;20231;-69
2023/06/15 09:49:28;;;;;;;6.43;4.73;;;;;;;22.20;50.97;100230.06;4254617;28;20800;-71
2023/06/15 09:51:55;;;;;;;11.23;5.73;;;;;;;21.01;55.16;100217.09;4251633;28;20238;-57
2023/06/15 09:54:23;;;;;;;7.73;5.60;;;;;;;21.18;54.82;100217.41;4256170;28;20252;-72
2023/06/15 09:56:51;;;;;;;6.93;5.17;;;;;;;21.25;53.59;100220.09;4252039;28;21090;-72
2023/06/15 09:59:19;;;;;;;7.93;4.50;;;;;;;21.10;52.93;100229.53;4266074;28;20324;-72
2023/06/15 10:01:49;;;;;;;8.93;4.77;;;;;;;20.97;53.44;100227.72;4249822;28;21582;-68
2023/06/15 10:04:22;;;;;;;7.70;4.50;;;;;;;21.11;54.28;100228.44;4260148;28;21160;-71
2023/06/15 10:06:51;;;;;;;7.03;4.87;;;;;;;21.17;54.45;100229.47;4249672;28;20323;-69
2023/06/15 10:09:28;;;;;;;8.83;5.50;;;;;;;20.63;55.54;100229.75;4252646;28;20231;-70
2023/06/15 10:12:05;;;;;;;9.70;5.60;;;;;;;20.27;56.69;100223.78;4261883;28;22755;-70
2023/06/15 10:14:35;;;;;;;8.10;5.50;;;;;;;20.13;55.31;100219.38;4243939;28;20295;-68
2023/06/15 10:17:04;;;;;;;7.50;5.37;;;;;;;20.43;55.26;100221.63;4241784;28;22056;-68
2023/06/15 10:19:41;;;;;;;10.00;5.73;;;;;;;20.43;55.72;100227.13;4249855;28;20304;-68
2023/06/15 10:22:14;;;;;;;12.70;6.50;;;;;;;20.32;56.75;100236.03;4252840;28;20230;-68
2023/06/15 10:24:42;;;;;;;11.30;5.80;;;;;;;19.90;57.63;100231.69;4247655;28;22644;-68
2023/06/15 10:27:09;;;;;;;10.77;6.50;;;;;;;19.84;58.87;100229.81;4257703;28;26117;-69
2023/06/15 10:29:41;;;;;;;15.30;6.53;;;;;;;19.77;61.20;100231.69;4249650;28;20249;-70
2023/06/15 10:32:15;;;;;;;8.83;6.80;;;;;;;19.55;63.69;100231.91;4250566;28;20222;-71
2023/06/15 10:34:47;;;;;;;13.20;8.20;;;;;;;19.77;65.23;100228.94;4253273;28;20256;-71
2023/06/15 10:37:16;;;;;;;13.40;8.67;;;;;;;19.64;65.24;100238.88;4236062;28;20226;-70
2023/06/15 10:39:47;;;;;;;16.53;9.23;;;;;;;19.72;64.75;100234.22;4251471;28;20231;-68
2023/06/15 10:42:14;;;;;;;10.37;7.80;;;;;;;20.00;63.68;100233.16;4268371;28;20261;-69
2023/06/15 10:44:41;;;;;;;12.07;7.97;;;;;;;20.45;62.43;100235.97;4255710;28;20235;-68
2023/06/15 10:47:09;;;;;;;14.83;8.20;;;;;;;20.30;63.82;100236.25;4245550;28;20239;-68
2023/06/15 10:49:35;;;;;;;11.93;7.53;;;;;;;20.57;61.79;100222.38;4245782;28;20238;-68
2023/06/15 10:52:06;;;;;;;9.67;7.10;;;;;;;21.06;58.36;100220.00;4247726;28;20578;-69
2023/06/15 10:54:35;;;;;;;9.73;6.63;;;;;;;20.93;57.13;100214.59;4245331;28;20231;-70
2023/06/15 10:57:02;;;;;;;11.17;6.60;;;;;;;21.20;56.43;100224.34;4248952;28;20226;-70
2023/06/15 10:59:46;;;;;;;10.70;5.60;;;;;;;21.29;55.98;100211.19;4255964;28;20871;-68
2023/06/15 11:02:27;;;;;;;9.23;6.87;;;;;;;21.23;56.73;100212.06;4256523;28;21127;-71
2023/06/15 11:05:08;;;;;;;11.43;7.10;;;;;;;21.02;57.55;100214.13;4249583;28;20289;-68
2023/06/15 11:07:39;;;;;;;14.33;8.13;;;;;;;20.10;60.42;100214.31;4263911;28;20276;-68
2023/06/15 11:10:21;;;;;;;12.23;7.37;;;;;;;20.56;58.92;100220.69;4247174;28;20539;-68
2023/06/15 11:12:54;;;;;;;11.00;7.00;;;;;;;20.97;58.37;100204.84;4254876;28;20226;-71
2023/06/15 11:15:21;;;;;;;10.13;6.37;;;;;;;21.49;54.00;100208.25;4244046;28;20234;-68
2023/06/15 11:17:57;;;;;;;10.07;6.30;;;;;;;21.84;54.59;100210.50;4258327;28;20539;-70
2023/06/15 11:20:47;;;;;;;10.60;6.53;;;;;;;21.97;52.84;100205.91;4255385;28;20234;-68